createdAt,value
2018-05-26T00:00:12.366Z,60.4
2018-05-26T00:01:02.983Z,60.3
2018-05-26T00:01:53.035Z,60.3
2018-05-26T00:02:43.110Z,60.3
2018-05-26T00:03:32.884Z,60.3
2018-05-26T00:04:22.956Z,60.3
2018-05-26T00:05:13.066Z,60.3
2018-05-26T00:06:03.376Z,60.3
2018-05-26T00:06:53.434Z,60.3
2018-05-26T00:07:43.257Z,60.3
2018-05-26T00:08:33.263Z,60.3
2018-05-26T00:09:23.408Z,60.3
2018-05-26T00:10:13.508Z,60.3
2018-05-26T00:11:03.469Z,60.3
2018-05-26T00:11:53.811Z,60.3
2018-05-26T00:12:43.870Z,60.3
2018-05-26T00:13:33.947Z,60.3
2018-05-26T00:14:24.052Z,60.3
2018-05-26T00:15:14.088Z,60.2
2018-05-26T00:16:03.871Z,60.2
2018-05-26T00:16:54.200Z,60.2
2018-05-26T00:17:44.023Z,60.2
2018-05-26T00:18:34.338Z,60.2
2018-05-26T00:19:24.406Z,60.2
2018-05-26T00:20:14.470Z,60.2
2018-05-26T00:21:04.511Z,60.2
2018-05-26T00:21:54.291Z,60.2
2018-05-26T00:22:44.654Z,60.1
2018-05-26T00:23:34.722Z,60.1
2018-05-26T00:24:24.787Z,60.1
2018-05-26T00:25:14.836Z,60.1
2018-05-26T00:26:04.892Z,60.1
2018-05-26T00:26:54.713Z,60.1
2018-05-26T00:27:45.018Z,60.1
2018-05-26T00:28:35.102Z,60.1
2018-05-26T00:29:25.169Z,60.1
2018-05-26T00:30:14.933Z,60.1
2018-05-26T00:31:04.727Z,60.1
2018-05-26T00:31:55.062Z,60.1
2018-05-26T00:32:45.139Z,60.1
2018-05-26T00:33:34.926Z,60.1
2018-05-26T00:34:25.297Z,60.1
2018-05-26T00:35:15.306Z,60.1
2018-05-26T00:36:05.374Z,60.1
2018-05-26T00:36:55.434Z,60.1
2018-05-26T00:37:45.713Z,60.1
2018-05-26T00:38:35.856Z,60
2018-05-26T00:39:25.666Z,60
2018-05-26T00:40:15.712Z,60
2018-05-26T00:41:06.053Z,60
2018-05-26T00:41:56.110Z,60
2018-05-26T00:42:46.184Z,60
2018-05-26T00:43:36.246Z,60
2018-05-26T00:44:26.337Z,59.9
2018-05-26T00:45:16.361Z,60
2018-05-26T00:46:06.431Z,59.9
2018-05-26T00:46:56.517Z,59.9
2018-05-26T00:47:46.554Z,59.9
2018-05-26T00:48:36.639Z,59.9
2018-05-26T00:49:26.721Z,59.9
2018-05-26T00:50:16.459Z,59.9
2018-05-26T00:51:06.846Z,59.9
2018-05-26T00:51:56.342Z,59.9
2018-05-26T00:52:46.976Z,59.9
2018-05-26T00:53:36.441Z,59.9
2018-05-26T00:54:26.887Z,59.9
2018-05-26T00:55:17.139Z,59.9
2018-05-26T00:56:06.918Z,59.9
2018-05-26T00:56:56.999Z,59.9
2018-05-26T00:57:47.061Z,59.9
2018-05-26T00:58:37.098Z,59.9
2018-05-26T00:59:27.492Z,59.9
2018-05-26T01:00:17.512Z,59.9
2018-05-26T01:01:07.028Z,59.8
2018-05-26T01:01:57.360Z,59.8
2018-05-26T01:02:47.432Z,59.8
2018-05-26T01:03:37.506Z,59.8
2018-05-26T01:04:27.585Z,59.8
2018-05-26T01:05:17.919Z,59.8
2018-05-26T01:06:07.703Z,59.8
2018-05-26T01:06:57.203Z,59.8
2018-05-26T01:07:48.132Z,59.8
2018-05-26T01:08:37.872Z,59.8
2018-05-26T01:09:27.963Z,59.8
2018-05-26T01:10:18.285Z,59.8
2018-05-26T01:11:08.353Z,59.8
2018-05-26T01:11:58.153Z,59.8
2018-05-26T01:12:48.217Z,59.8
2018-05-26T01:13:38.290Z,59.8
2018-05-26T01:14:28.605Z,59.8
2018-05-26T01:15:18.671Z,59.8
2018-05-26T01:16:08.755Z,59.7
2018-05-26T01:16:58.807Z,59.7
2018-05-26T01:17:48.871Z,59.7
2018-05-26T01:18:38.655Z,59.7
2018-05-26T01:19:29.014Z,59.7
2018-05-26T01:20:19.046Z,59.7
2018-05-26T01:21:09.119Z,59.7
2018-05-26T01:21:59.224Z,59.7
2018-05-26T01:22:49.229Z,59.7
2018-05-26T01:23:39.305Z,59.7
2018-05-26T01:24:28.836Z,59.7
2018-05-26T01:25:18.896Z,59.6
2018-05-26T01:26:09.483Z,59.6
2018-05-26T01:26:59.564Z,59.6
2018-05-26T01:27:49.642Z,59.6
2018-05-26T01:28:39.704Z,59.6
2018-05-26T01:29:29.753Z,59.6
2018-05-26T01:30:19.806Z,59.6
2018-05-26T01:31:09.873Z,59.6
2018-05-26T01:31:59.960Z,59.6
2018-05-26T01:32:49.735Z,59.6
2018-05-26T01:33:39.800Z,59.6
2018-05-26T01:34:30.158Z,59.6
2018-05-26T01:35:19.931Z,59.6
2018-05-26T01:36:09.995Z,59.6
2018-05-26T01:37:00.328Z,59.6
2018-05-26T01:37:50.126Z,59.6
2018-05-26T01:38:40.494Z,59.5
2018-05-26T01:39:30.520Z,59.5
2018-05-26T01:40:20.317Z,59.5
2018-05-26T01:41:10.376Z,59.5
2018-05-26T01:42:00.451Z,59.5
2018-05-26T01:42:50.813Z,59.5
2018-05-26T01:43:40.556Z,59.5
2018-05-26T01:44:30.924Z,59.4
2018-05-26T01:45:20.987Z,59.5
2018-05-26T01:46:11.034Z,59.5
2018-05-26T01:47:01.089Z,59.4
2018-05-26T01:47:51.172Z,59.5
2018-05-26T01:48:41.232Z,59.4
2018-05-26T01:49:31.295Z,59.4
2018-05-26T01:50:21.344Z,59.4
2018-05-26T01:51:11.151Z,59.4
2018-05-26T01:52:00.926Z,59.4
2018-05-26T01:52:51.581Z,59.4
2018-05-26T01:53:41.320Z,59.4
2018-05-26T01:54:31.685Z,59.4
2018-05-26T01:55:21.453Z,59.4
2018-05-26T01:56:11.529Z,59.4
2018-05-26T01:57:01.860Z,59.4
2018-05-26T01:57:51.974Z,59.4
2018-05-26T01:58:41.159Z,59.3
2018-05-26T01:59:32.061Z,59.4
2018-05-26T02:00:21.846Z,59.3
2018-05-26T02:01:12.191Z,59.4
2018-05-26T02:02:02.272Z,59.3
2018-05-26T02:02:52.021Z,59.3
2018-05-26T02:03:42.390Z,59.3
2018-05-26T02:04:32.216Z,59.3
2018-05-26T02:05:22.251Z,59.3
2018-05-26T02:06:12.304Z,59.3
2018-05-26T02:07:02.376Z,59.3
2018-05-26T02:07:52.431Z,59.3
2018-05-26T02:08:42.494Z,59.3
2018-05-26T02:09:32.563Z,59.3
2018-05-26T02:10:22.894Z,59.3
2018-05-26T02:11:12.969Z,59.3
2018-05-26T02:12:02.797Z,59.3
2018-05-26T02:12:53.089Z,59.3
2018-05-26T02:13:43.161Z,59.3
2018-05-26T02:14:32.966Z,59.3
2018-05-26T02:15:23.291Z,59.3
2018-05-26T02:16:13.077Z,59.2
2018-05-26T02:17:03.133Z,59.2
2018-05-26T02:17:53.495Z,59.2
2018-05-26T02:18:43.281Z,59.2
2018-05-26T02:19:32.806Z,59.2
2018-05-26T02:20:23.668Z,59.2
2018-05-26T02:21:13.723Z,59.2
2018-05-26T02:22:03.796Z,59.2
2018-05-26T02:22:53.878Z,59.1
2018-05-26T02:23:43.938Z,59.1
2018-05-26T02:24:33.998Z,59.1
2018-05-26T02:25:24.073Z,59.1
2018-05-26T02:26:14.106Z,59.1
2018-05-26T02:27:04.223Z,59.1
2018-05-26T02:27:53.692Z,59.1
2018-05-26T02:28:44.301Z,59.1
2018-05-26T02:29:34.392Z,59.1
2018-05-26T02:30:24.443Z,59.1
2018-05-26T02:31:13.951Z,59.1
2018-05-26T02:32:04.008Z,59.1
2018-05-26T02:32:54.627Z,59.1
2018-05-26T02:33:44.410Z,59.1
2018-05-26T02:34:34.221Z,59.1
2018-05-26T02:35:24.817Z,59.1
2018-05-26T02:36:14.880Z,59.1
2018-05-26T02:37:04.984Z,59.1
2018-05-26T02:37:55.023Z,59.1
2018-05-26T02:38:44.811Z,59
2018-05-26T02:39:34.839Z,59.1
2018-05-26T02:40:25.263Z,59
2018-05-26T02:41:15.272Z,59
2018-05-26T02:42:05.403Z,59
2018-05-26T02:42:54.845Z,59
2018-05-26T02:43:45.494Z,59
2018-05-26T02:44:35.237Z,59
2018-05-26T02:45:24.723Z,59
2018-05-26T02:46:15.674Z,58.9
2018-05-26T02:47:05.716Z,58.9
2018-05-26T02:47:55.777Z,58.9
2018-05-26T02:48:45.866Z,58.9
2018-05-26T02:49:35.907Z,58.9
2018-05-26T02:50:25.969Z,58.9
2018-05-26T02:51:15.764Z,58.9
2018-05-26T02:52:06.090Z,58.9
2018-05-26T02:52:56.151Z,58.9
2018-05-26T02:53:45.960Z,58.9
2018-05-26T02:54:36.337Z,58.9
2018-05-26T02:55:26.377Z,58.9
2018-05-26T02:56:15.874Z,58.9
2018-05-26T02:57:06.505Z,58.9
2018-05-26T02:57:56.554Z,58.9
2018-05-26T02:58:46.339Z,58.9
2018-05-26T02:59:36.676Z,58.9
2018-05-26T03:00:26.744Z,58.9
2018-05-26T03:01:16.831Z,58.9
2018-05-26T03:02:06.919Z,58.8
2018-05-26T03:02:56.648Z,58.8
2018-05-26T03:03:47.030Z,58.8
2018-05-26T03:04:37.071Z,58.8
2018-05-26T03:05:27.126Z,58.8
2018-05-26T03:06:17.203Z,58.8
2018-05-26T03:07:07.243Z,58.8
2018-05-26T03:07:57.320Z,58.8
2018-05-26T03:08:47.108Z,58.8
2018-05-26T03:09:37.151Z,58.8
2018-05-26T03:10:27.231Z,58.8
2018-05-26T03:11:17.584Z,58.8
2018-05-26T03:12:07.070Z,58.8
2018-05-26T03:12:57.698Z,58.8
2018-05-26T03:13:47.477Z,58.8
2018-05-26T03:14:37.829Z,58.8
2018-05-26T03:15:27.882Z,58.8
2018-05-26T03:16:17.676Z,58.8
2018-05-26T03:17:08.020Z,58.7
2018-05-26T03:17:58.064Z,58.7
2018-05-26T03:18:48.158Z,58.7
2018-05-26T03:19:37.940Z,58.7
2018-05-26T03:20:28.274Z,58.7
2018-05-26T03:21:18.327Z,58.7
2018-05-26T03:22:08.124Z,58.7
2018-05-26T03:22:58.485Z,58.7
2018-05-26T03:23:48.514Z,58.6
2018-05-26T03:24:38.315Z,58.6
2018-05-26T03:25:28.688Z,58.6
2018-05-26T03:26:18.777Z,58.6
2018-05-26T03:27:08.789Z,58.6
2018-05-26T03:27:58.576Z,58.6
2018-05-26T03:28:48.892Z,58.6
2018-05-26T03:29:38.966Z,58.6
2018-05-26T03:30:29.149Z,58.6
2018-05-26T03:31:19.100Z,58.6
2018-05-26T03:32:09.172Z,58.6
2018-05-26T03:38:49.678Z,58.5
2018-05-26T03:40:29.817Z,58.5
2018-05-26T03:41:19.885Z,58.5
2018-05-26T03:42:09.639Z,58.5
2018-05-26T03:43:00.009Z,58.5
2018-05-26T03:43:49.760Z,58.5
2018-05-26T03:44:40.111Z,58.5
2018-05-26T03:45:30.202Z,58.5
2018-05-26T03:46:19.699Z,58.5
2018-05-26T03:47:10.047Z,58.5
2018-05-26T03:48:00.392Z,58.5
2018-05-26T03:48:50.171Z,58.4
2018-05-26T03:49:40.033Z,58.4
2018-05-26T03:50:30.312Z,58.4
2018-05-26T03:51:20.064Z,58.4
2018-05-26T03:52:10.427Z,58.4
2018-05-26T03:53:00.769Z,58.4
2018-05-26T03:53:50.541Z,58.4
2018-05-26T03:54:40.588Z,58.4
2018-05-26T03:55:30.954Z,58.4
2018-05-26T03:56:21.038Z,58.4
2018-05-26T03:57:10.821Z,58.4
2018-05-26T03:58:01.140Z,58.4
2018-05-26T03:58:51.240Z,58.4
2018-05-26T03:59:41.271Z,58.4
2018-05-26T04:00:31.321Z,58.4
2018-05-26T04:01:21.394Z,58.4
2018-05-26T04:02:11.456Z,58.4
2018-05-26T04:03:00.968Z,58.3
2018-05-26T04:03:51.307Z,58.4
2018-05-26T04:04:41.642Z,58.3
2018-05-26T04:05:31.704Z,58.3
2018-05-26T04:06:21.502Z,58.3
2018-05-26T04:07:11.272Z,58.3
2018-05-26T04:08:01.643Z,58.3
2018-05-26T04:08:51.978Z,58.3
2018-05-26T04:09:41.488Z,58.3
2018-05-26T04:10:32.088Z,58.3
2018-05-26T04:11:22.263Z,58.3
2018-05-26T04:12:12.224Z,58.3
2018-05-26T04:13:02.302Z,58.3
2018-05-26T04:13:52.360Z,58.3
2018-05-26T04:14:42.139Z,58.3
2018-05-26T04:15:32.482Z,58.3
2018-05-26T04:16:22.587Z,58.3
2018-05-26T04:17:12.654Z,58.3
2018-05-26T04:18:02.678Z,58.3
2018-05-26T04:18:52.759Z,58.2
2018-05-26T04:19:42.832Z,58.2
2018-05-26T04:20:32.889Z,58.2
2018-05-26T04:21:22.947Z,58.2
2018-05-26T04:22:12.442Z,58.2
2018-05-26T04:23:02.802Z,58.2
2018-05-26T04:23:53.134Z,58.2
2018-05-26T04:24:43.211Z,58.2
2018-05-26T04:25:33.243Z,58.2
2018-05-26T04:26:23.037Z,58.1
2018-05-26T04:27:13.374Z,58.1
2018-05-26T04:28:03.193Z,58.1
2018-05-26T04:28:53.514Z,58.1
2018-05-26T04:29:43.574Z,58.1
2018-05-26T04:30:33.644Z,58.1
2018-05-26T04:31:23.713Z,58.1
2018-05-26T04:32:13.477Z,58.1
2018-05-26T04:33:03.558Z,58.1
2018-05-26T04:33:53.339Z,58.1
2018-05-26T04:34:43.951Z,58.1
2018-05-26T04:35:33.810Z,58.1
2018-05-26T04:36:24.094Z,58.1
2018-05-26T04:37:14.153Z,58.1
2018-05-26T04:38:04.217Z,58.1
2018-05-26T04:38:54.028Z,58.1
2018-05-26T04:39:44.347Z,58
2018-05-26T04:40:34.408Z,58.1
2018-05-26T04:41:24.518Z,58.1
2018-05-26T04:42:14.626Z,58.1
2018-05-26T04:43:04.644Z,58
2018-05-26T04:43:54.698Z,58
2018-05-26T04:44:44.456Z,58
2018-05-26T04:45:34.790Z,58
2018-05-26T04:46:24.884Z,58
2018-05-26T04:47:14.932Z,58
2018-05-26T04:48:05.005Z,58
2018-05-26T04:48:54.790Z,57.9
2018-05-26T04:49:44.846Z,57.9
2018-05-26T04:50:35.172Z,57.9
2018-05-26T04:51:25.247Z,57.9
2018-05-26T04:52:15.013Z,57.9
2018-05-26T04:53:05.363Z,57.9
2018-05-26T04:53:55.424Z,57.9
2018-05-26T04:54:45.486Z,57.9
2018-05-26T04:55:35.578Z,57.9
2018-05-26T04:56:25.608Z,57.9
2018-05-26T04:57:15.708Z,57.9
2018-05-26T04:58:05.762Z,57.9
2018-05-26T04:58:55.807Z,57.9
2018-05-26T04:59:45.604Z,57.9
2018-05-26T05:00:35.681Z,57.9
2018-05-26T05:01:26.041Z,57.9
2018-05-26T05:02:16.092Z,57.9
2018-05-26T05:03:05.318Z,57.8
2018-05-26T05:03:55.928Z,57.8
2018-05-26T05:04:46.271Z,57.8
2018-05-26T05:05:36.130Z,57.8
2018-05-26T05:06:26.412Z,57.8
2018-05-26T05:07:16.189Z,57.8
2018-05-26T05:08:06.516Z,57.8
2018-05-26T05:08:56.319Z,57.8
2018-05-26T05:09:46.652Z,57.8
2018-05-26T05:18:57.088Z,57.7
2018-05-26T05:19:47.451Z,57.7
2018-05-26T05:20:37.479Z,57.7
2018-05-26T05:21:26.986Z,57.7
2018-05-26T05:22:17.636Z,57.7
2018-05-26T05:23:07.677Z,57.7
2018-05-26T05:23:57.733Z,57.6
2018-05-26T05:24:47.818Z,57.6
2018-05-26T05:25:37.867Z,57.6
2018-05-26T05:26:27.653Z,57.6
2018-05-26T05:27:17.995Z,57.6
2018-05-26T05:28:08.073Z,57.6
2018-05-26T05:28:58.121Z,57.6
2018-05-26T05:29:48.008Z,57.6
2018-05-26T05:30:38.285Z,57.6
2018-05-26T05:31:28.320Z,57.6
2018-05-26T05:32:18.398Z,57.6
2018-05-26T05:33:08.189Z,57.6
2018-05-26T05:33:58.240Z,57.6
2018-05-26T05:34:48.597Z,57.6
2018-05-26T05:35:38.365Z,57.6
2018-05-26T05:36:28.420Z,57.6
2018-05-26T05:37:18.190Z,57.6
2018-05-26T05:38:08.850Z,57.5
2018-05-26T05:38:58.358Z,57.5
2018-05-26T05:39:48.685Z,57.6
2018-05-26T05:40:39.026Z,57.5
2018-05-26T05:41:28.815Z,57.5
2018-05-26T05:42:18.893Z,57.5
2018-05-26T05:43:09.215Z,57.5
2018-05-26T05:43:59.307Z,57.5
2018-05-26T05:44:49.341Z,57.5
2018-05-26T05:45:39.397Z,57.5
2018-05-26T05:46:29.474Z,57.4
2018-05-26T05:47:19.533Z,57.4
2018-05-26T05:48:09.598Z,57.4
2018-05-26T05:48:59.130Z,57.4
2018-05-26T05:49:48.904Z,57.4
2018-05-26T05:50:39.816Z,57.4
2018-05-26T05:51:29.582Z,57.4
2018-05-26T05:52:19.980Z,57.4
2018-05-26T05:53:09.714Z,57.4
2018-05-26T05:54:00.070Z,57.4
2018-05-26T05:54:50.125Z,57.4
2018-05-26T05:55:39.887Z,57.4
2018-05-26T05:56:30.134Z,57.4
2018-05-26T05:57:20.024Z,57.4
2018-05-26T05:58:10.409Z,57.4
2018-05-26T05:59:00.160Z,57.4
2018-05-26T05:59:50.517Z,57.4
2018-05-26T06:00:40.603Z,57.3
2018-05-26T06:01:30.353Z,57.3
2018-05-26T06:02:20.713Z,57.3
2018-05-26T06:03:10.744Z,57.3
2018-05-26T06:04:00.846Z,57.3
2018-05-26T06:04:50.607Z,57.3
2018-05-26T06:05:40.959Z,57.3
2018-05-26T06:06:31.019Z,57.3
2018-05-26T06:07:21.129Z,57.3
2018-05-26T06:08:11.148Z,57.3
2018-05-26T06:09:00.923Z,57.3
2018-05-26T06:09:51.283Z,57.3
2018-05-26T06:10:41.336Z,57.3
2018-05-26T06:11:31.147Z,57.3
2018-05-26T06:12:20.906Z,57.3
2018-05-26T06:13:11.544Z,57.3
2018-05-26T06:14:01.599Z,57.3
2018-05-26T06:14:51.764Z,57.2
2018-05-26T06:15:41.765Z,57.3
2018-05-26T06:16:31.809Z,57.2
2018-05-26T06:17:21.831Z,57.2
2018-05-26T06:18:11.908Z,57.2
2018-05-26T06:19:01.991Z,57.2
2018-05-26T06:19:52.077Z,57.2
2018-05-26T06:20:42.146Z,57.2
2018-05-26T06:21:31.901Z,57.2
2018-05-26T06:22:22.248Z,57.1
2018-05-26T06:23:12.308Z,57.1
2018-05-26T06:24:02.065Z,57.1
2018-05-26T06:24:51.862Z,57.1
2018-05-26T06:25:42.482Z,57.1
2018-05-26T06:26:32.955Z,57.1
2018-05-26T06:27:22.347Z,57.1
2018-05-26T06:28:12.682Z,57.1
2018-05-26T06:29:02.470Z,57.1
2018-05-26T06:29:52.817Z,57.1
2018-05-26T06:30:42.867Z,57.1
2018-05-26T06:31:32.941Z,57.1
2018-05-26T06:32:22.723Z,57.1
2018-05-26T06:33:13.058Z,57.1
2018-05-26T06:34:03.145Z,57.1
2018-05-26T06:34:53.195Z,57.1
2018-05-26T06:35:43.283Z,57.1
2018-05-26T06:36:33.345Z,57.1
2018-05-26T06:37:23.386Z,57
2018-05-26T06:38:13.452Z,57
2018-05-26T06:39:03.515Z,57
2018-05-26T06:39:55.232Z,57
2018-05-26T06:40:45.012Z,57
2018-05-26T06:41:35.419Z,57
2018-05-26T06:42:25.432Z,57
2018-05-26T06:43:15.817Z,57
2018-05-26T06:44:04.578Z,56.9
2018-05-26T06:44:55.364Z,56.9
2018-05-26T06:45:45.962Z,56.9
2018-05-26T06:46:36.018Z,56.9
2018-05-26T06:47:25.543Z,56.9
2018-05-26T06:48:15.381Z,56.9
2018-05-26T06:49:05.688Z,56.9
2018-05-26T06:49:55.715Z,56.9
2018-05-26T06:50:46.665Z,56.9
2018-05-26T06:51:36.425Z,56.9
2018-05-26T06:52:26.191Z,56.9
2018-05-26T06:53:16.557Z,56.9
2018-05-26T06:54:06.175Z,56.9
2018-05-26T06:54:56.430Z,56.9
2018-05-26T06:55:46.185Z,56.9
2018-05-26T06:56:36.026Z,56.9
2018-05-26T06:57:26.863Z,56.9
2018-05-26T06:58:16.396Z,56.8
2018-05-26T06:59:06.444Z,56.8
2018-05-26T06:59:56.786Z,56.8
2018-05-26T07:00:46.849Z,56.8
2018-05-26T07:01:37.174Z,56.8
2018-05-26T07:02:26.980Z,56.8
2018-05-26T07:03:16.756Z,56.8
2018-05-26T07:04:07.401Z,56.8
2018-05-26T07:04:57.193Z,56.8
2018-05-26T07:05:47.215Z,56.8
2018-05-26T07:06:37.600Z,56.8
2018-05-26T07:07:27.352Z,56.8
2018-05-26T07:08:17.725Z,56.8
2018-05-26T07:09:07.783Z,56.8
2018-05-26T07:09:57.849Z,56.8
2018-05-26T07:10:47.350Z,56.8
2018-05-26T07:11:37.495Z,56.8
2018-05-26T07:12:27.763Z,56.7
2018-05-26T07:13:17.817Z,56.8
2018-05-26T07:14:07.338Z,56.8
2018-05-26T07:14:57.716Z,56.7
2018-05-26T07:15:47.975Z,56.7
2018-05-26T07:16:38.356Z,56.7
2018-05-26T07:17:28.413Z,56.7
2018-05-26T07:18:17.630Z,56.7
2018-05-26T07:19:07.994Z,56.7
2018-05-26T07:19:58.051Z,56.6
2018-05-26T07:20:48.414Z,56.7
2018-05-26T07:21:38.478Z,56.6
2018-05-26T07:22:28.535Z,56.7
2018-05-26T07:23:18.899Z,56.6
2018-05-26T07:24:08.917Z,56.6
2018-05-26T07:24:59.004Z,56.6
2018-05-26T07:25:49.062Z,56.6
2018-05-26T07:26:38.842Z,56.6
2018-05-26T07:27:28.464Z,56.6
2018-05-26T07:28:18.994Z,56.6
2018-05-26T07:29:08.761Z,56.6
2018-05-26T07:29:59.363Z,56.6
2018-05-26T07:30:49.475Z,56.6
2018-05-26T07:31:39.254Z,56.6
2018-05-26T07:32:29.583Z,56.6
2018-05-26T07:33:19.108Z,56.6
2018-05-26T07:34:09.433Z,56.6
2018-05-26T07:34:59.506Z,56.6
2018-05-26T07:35:49.563Z,56.6
2018-05-26T07:36:39.944Z,56.5
2018-05-26T07:37:29.852Z,56.5
2018-05-26T07:38:19.805Z,56.5
2018-05-26T07:39:09.620Z,56.5
2018-05-26T07:39:59.899Z,56.5
2018-05-26T07:40:50.211Z,56.5
2018-05-26T07:41:40.289Z,56.5
2018-05-26T07:42:30.065Z,56.5
2018-05-26T07:43:19.826Z,56.5
2018-05-26T07:44:09.512Z,56.5
2018-05-26T07:45:00.543Z,56.4
2018-05-26T07:45:50.314Z,56.4
2018-05-26T07:46:40.109Z,56.4
2018-05-26T07:47:29.984Z,56.4
2018-05-26T07:48:20.220Z,56.4
2018-05-26T07:49:10.864Z,56.4
2018-05-26T07:50:00.928Z,56.4
2018-05-26T07:50:50.432Z,56.4
2018-05-26T07:51:41.112Z,56.4
2018-05-26T07:52:30.861Z,56.4
2018-05-26T07:53:21.191Z,56.4
2018-05-26T07:54:11.287Z,56.4
2018-05-26T07:55:01.305Z,56.4
2018-05-26T07:55:51.380Z,56.4
2018-05-26T07:56:41.464Z,56.4
2018-05-26T07:57:31.233Z,56.3
2018-05-26T07:58:21.524Z,56.3
2018-05-26T07:59:11.398Z,56.3
2018-05-26T08:00:01.152Z,56.3
2018-05-26T08:00:51.724Z,56.3
2018-05-26T08:01:41.834Z,56.3
2018-05-26T08:02:31.904Z,56.4
2018-05-26T08:03:21.704Z,56.4
2018-05-26T08:04:11.760Z,56.4
2018-05-26T08:05:02.104Z,56.5
2018-05-26T08:05:51.863Z,56.5
2018-05-26T08:06:41.947Z,56.6
2018-05-26T08:07:31.727Z,56.6
2018-05-26T08:08:22.087Z,56.7
2018-05-26T08:09:12.437Z,56.8
2018-05-26T08:10:01.973Z,56.8
2018-05-26T08:10:52.888Z,56.9
2018-05-26T08:11:42.356Z,56.9
2018-05-26T08:12:32.693Z,56.9
2018-05-26T08:13:22.750Z,57
2018-05-26T08:14:12.794Z,57
2018-05-26T08:15:02.638Z,57.1
2018-05-26T08:15:53.178Z,57.1
2018-05-26T08:16:42.458Z,57.2
2018-05-26T08:17:32.734Z,57.3
2018-05-26T08:18:22.564Z,57.3
2018-05-26T08:19:12.661Z,57.3
2018-05-26T08:20:03.000Z,57.4
2018-05-26T08:20:53.321Z,57.4
2018-05-26T08:21:42.847Z,57.5
2018-05-26T08:22:32.904Z,57.6
2018-05-26T08:23:23.257Z,57.7
2018-05-26T08:25:03.365Z,57.8
2018-05-26T08:25:53.500Z,57.9
2018-05-26T08:26:43.534Z,57.9
2018-05-26T08:27:33.570Z,57.9
2018-05-26T08:28:23.375Z,58
2018-05-26T08:29:13.714Z,58.1
2018-05-26T08:30:03.229Z,58.1
2018-05-26T08:30:53.875Z,58.3
2018-05-26T08:31:43.611Z,58.3
2018-05-26T08:32:34.305Z,58.4
2018-05-26T08:33:24.042Z,58.4
2018-05-26T08:34:14.079Z,58.5
2018-05-26T08:35:54.504Z,58.6
2018-05-26T08:36:44.025Z,58.7
2018-05-26T08:37:34.088Z,58.8
2018-05-26T08:38:24.436Z,58.8
2018-05-26T08:39:13.641Z,58.9
2018-05-26T08:40:04.839Z,58.9
2018-05-26T08:40:54.605Z,59
2018-05-26T08:41:44.691Z,59.1
2018-05-26T08:42:34.754Z,59.1
2018-05-26T08:43:24.827Z,59.2
2018-05-26T08:44:14.617Z,59.3
2018-05-26T08:45:04.970Z,59.3
2018-05-26T08:45:54.809Z,59.4
2018-05-26T08:46:44.561Z,59.5
2018-05-26T08:47:35.129Z,59.6
2018-05-26T08:48:25.201Z,59.6
2018-05-26T08:49:15.016Z,59.7
2018-05-26T08:50:05.347Z,59.8
2018-05-26T08:50:55.089Z,59.8
2018-05-26T08:51:45.553Z,59.9
2018-05-26T08:52:35.798Z,59.9
2018-05-26T08:53:25.872Z,60
2018-05-26T08:54:15.942Z,60.1
2018-05-26T08:55:05.724Z,60.2
2018-05-26T08:55:56.058Z,60.3
2018-05-26T08:56:46.133Z,60.3
2018-05-26T08:57:35.344Z,60.4
2018-05-26T08:58:25.723Z,60.4
2018-05-26T08:59:16.058Z,60.4
2018-05-26T09:00:06.411Z,60.5
2018-05-26T09:00:56.513Z,60.6
2018-05-26T09:01:46.524Z,60.6
2018-05-26T09:02:36.291Z,60.7
2018-05-26T09:03:26.358Z,60.8
2018-05-26T09:04:16.750Z,60.8
2018-05-26T09:05:06.231Z,60.9
2018-05-26T09:05:56.011Z,60.9
2018-05-26T09:06:45.866Z,60.9
2018-05-26T09:07:36.407Z,60.9
2018-05-26T09:08:26.512Z,61
2018-05-26T09:09:17.099Z,61
2018-05-26T09:10:06.588Z,61.1
2018-05-26T09:10:56.973Z,61.1
2018-05-26T09:11:47.290Z,61.1
2018-05-26T09:12:36.816Z,61.1
2018-05-26T09:13:26.875Z,61.2
2018-05-26T09:14:16.675Z,61.2
2018-05-26T09:15:07.556Z,61.2
2018-05-26T09:15:57.628Z,61.3
2018-05-26T09:16:47.410Z,61.3
2018-05-26T09:17:37.268Z,61.3
2018-05-26T09:18:27.825Z,61.4
2018-05-26T09:19:17.905Z,61.4
2018-05-26T09:20:07.929Z,61.4
2018-05-26T09:20:57.743Z,61.5
2018-05-26T09:21:47.675Z,61.5
2018-05-26T09:22:37.128Z,61.6
2018-05-26T09:23:28.185Z,61.6
2018-05-26T09:24:18.017Z,61.6
2018-05-26T09:25:08.454Z,61.6
2018-05-26T09:25:57.460Z,61.7
2018-05-26T09:26:48.212Z,61.7
2018-05-26T09:27:37.990Z,61.7
2018-05-26T09:28:28.312Z,61.8
2018-05-26T09:29:18.380Z,61.8
2018-05-26T09:30:08.471Z,61.8
2018-05-26T09:30:58.789Z,61.8
2018-05-26T09:31:48.098Z,61.9
2018-05-26T09:32:38.634Z,61.9
2018-05-26T09:33:28.737Z,61.9
2018-05-26T09:34:19.063Z,61.9
2018-05-26T09:35:09.116Z,62
2018-05-26T09:35:58.908Z,62
2018-05-26T09:36:49.296Z,62.1
2018-05-26T09:37:38.812Z,62.1
2018-05-26T09:38:29.394Z,62.1
2018-05-26T09:39:19.481Z,62.2
2018-05-26T09:40:09.117Z,62.3
2018-05-26T09:40:59.041Z,62.3
2018-05-26T09:41:49.367Z,62.3
2018-05-26T09:42:39.707Z,62.4
2018-05-26T09:43:29.505Z,62.4
2018-05-26T09:44:19.889Z,62.5
2018-05-26T09:45:09.907Z,62.6
2018-05-26T09:45:59.403Z,62.6
2018-05-26T09:46:50.028Z,62.7
2018-05-26T09:47:40.122Z,62.7
2018-05-26T09:48:30.157Z,62.8
2018-05-26T09:49:20.214Z,62.8
2018-05-26T09:50:09.999Z,62.9
2018-05-26T09:51:00.059Z,62.9
2018-05-26T09:51:50.411Z,63
2018-05-26T09:52:40.469Z,63.1
2018-05-26T09:53:30.271Z,63.1
2018-05-26T09:54:20.338Z,63.2
2018-05-26T09:55:10.680Z,63.3
2018-05-26T09:56:01.105Z,63.4
2018-05-26T09:56:50.846Z,63.4
2018-05-26T09:57:40.600Z,63.5
2018-05-26T09:58:30.936Z,63.6
2018-05-26T09:59:20.763Z,63.6
2018-05-26T10:00:10.515Z,63.7
2018-05-26T10:01:01.168Z,63.8
2018-05-26T10:01:51.255Z,63.9
2018-05-26T10:02:40.988Z,63.9
2018-05-26T10:03:31.328Z,64
2018-05-26T10:04:21.170Z,64.1
2018-05-26T10:05:11.474Z,64.2
2018-05-26T10:06:01.259Z,64.3
2018-05-26T10:06:51.125Z,64.3
2018-05-26T10:07:41.400Z,64.3
2018-05-26T10:08:31.733Z,64.4
2018-05-26T10:09:21.756Z,64.5
2018-05-26T10:10:11.937Z,64.5
2018-05-26T10:11:01.987Z,64.6
2018-05-26T10:11:51.736Z,64.6
2018-05-26T10:12:42.065Z,64.7
2018-05-26T10:13:32.233Z,64.8
2018-05-26T10:14:22.199Z,64.8
2018-05-26T10:15:11.982Z,64.8
2018-05-26T10:16:02.333Z,64.9
2018-05-26T10:16:52.119Z,64.9
2018-05-26T10:17:42.162Z,64.9
2018-05-26T10:18:31.970Z,65
2018-05-26T10:19:22.017Z,65
2018-05-26T10:20:12.095Z,65
2018-05-26T10:21:02.712Z,65.1
2018-05-26T10:21:52.528Z,65.1
2018-05-26T10:22:42.549Z,65.2
2018-05-26T10:23:32.624Z,65.2
2018-05-26T10:24:22.742Z,65.3
2018-05-26T10:25:12.462Z,65.3
2018-05-26T10:26:03.094Z,65.3
2018-05-26T10:26:52.928Z,65.4
2018-05-26T10:27:43.223Z,65.4
2018-05-26T10:28:33.358Z,65.4
2018-05-26T10:29:23.349Z,65.5
2018-05-26T10:30:13.117Z,65.6
2018-05-26T10:31:03.211Z,65.6
2018-05-26T10:31:53.513Z,65.6
2018-05-26T10:32:43.613Z,65.7
2018-05-26T10:33:33.418Z,65.8
2018-05-26T10:34:23.761Z,65.8
2018-05-26T10:35:13.853Z,65.8
2018-05-26T10:36:03.663Z,65.8
2018-05-26T10:36:53.647Z,65.8
2018-05-26T10:37:44.015Z,65.8
2018-05-26T10:38:34.060Z,65.9
2018-05-26T10:39:24.122Z,65.9
2018-05-26T10:40:13.947Z,65.9
2018-05-26T10:41:03.998Z,65.9
2018-05-26T10:41:52.412Z,66
2018-05-26T10:42:42.183Z,66
2018-05-26T10:43:32.522Z,66
2018-05-26T10:44:22.609Z,66
2018-05-26T10:45:12.385Z,66.1
2018-05-26T10:46:02.738Z,66.1
2018-05-26T10:46:52.801Z,66.1
2018-05-26T10:47:44.816Z,66.1
2018-05-26T10:48:34.569Z,66.1
2018-05-26T10:49:24.945Z,66.1
2018-05-26T10:50:14.973Z,66.1
2018-05-26T10:51:04.775Z,66.1
2018-05-26T10:51:54.830Z,66.2
2018-05-26T10:52:44.913Z,66.2
2018-05-26T10:53:35.235Z,66.2
2018-05-26T10:54:25.327Z,66.3
2018-05-26T10:55:15.371Z,66.3
2018-05-26T10:56:05.425Z,66.3
2018-05-26T10:56:55.497Z,66.3
2018-05-26T10:57:44.995Z,66.4
2018-05-26T10:58:35.359Z,66.4
2018-05-26T10:59:25.714Z,66.4
2018-05-26T11:00:15.282Z,66.4
2018-05-26T11:01:05.852Z,66.5
2018-05-26T11:01:55.906Z,66.5
2018-05-26T11:02:44.024Z,66.6
2018-05-26T11:03:33.246Z,66.6
2018-05-26T11:04:24.336Z,66.6
2018-05-26T11:05:14.225Z,66.6
2018-05-26T11:06:04.291Z,66.7
2018-05-26T11:06:54.409Z,66.7
2018-05-26T11:07:44.434Z,66.8
2018-05-26T11:08:33.652Z,66.8
2018-05-26T11:09:24.580Z,66.8
2018-05-26T11:10:14.633Z,66.8
2018-05-26T11:11:04.410Z,66.8
2018-05-26T11:11:54.202Z,66.8
2018-05-26T11:12:44.246Z,66.8
2018-05-26T11:13:34.403Z,66.8
2018-05-26T11:14:24.986Z,66.8
2018-05-26T11:15:15.020Z,66.8
2018-05-26T11:16:04.235Z,66.8
2018-05-26T11:16:54.665Z,66.8
2018-05-26T11:17:44.968Z,66.8
2018-05-26T11:18:35.015Z,66.8
2018-05-26T11:19:26.418Z,66.8
2018-05-26T11:20:17.091Z,66.8
2018-05-26T11:21:06.554Z,66.8
2018-05-26T11:21:56.651Z,66.9
2018-05-26T11:22:45.589Z,66.9
2018-05-26T11:23:35.692Z,66.9
2018-05-26T11:24:26.455Z,66.9
2018-05-26T11:25:15.810Z,66.9